KCHS/CHS METAR and TAF weather

Enter ICAO airport designator
Station Type Date Time Source
KCHS METAR 2020/02/24 23:56 UTC NOAA

KCHS 242356Z 09004KT 10SM SCT060 OVC110 13/12 A3002 RMK AO2 RAB25E43 SLP164 P0000 60000 T01330117 10183 20133 55001 $


Station Type Date Time Source
KCHS Decoded METAR 2020/02/24 23:56 UTC NOAA

CHARLESTON INT'L AIRPORT, SC, United States (KCHS) 32-54N 080-02W 13M
Feb 24, 2020 - 06:56 PM EST / 2020.02.24 2356 UTC
Wind: from the E (090 degrees) at 5 MPH (4 KT):0
Visibility: 10 mile(s):0
Sky conditions: overcast
Precipitation last hour: A trace
Temperature: 55.9 F (13.3 C)
Dew Point: 53.1 F (11.7 C)
Relative Humidity: 90%
Pressure (altimeter): 30.02 in. Hg (1016 hPa)
Pressure tendency: 0.00 inches (0.1 hPa) lower than three hours ago
ob: KCHS 242356Z 09004KT 10SM SCT060 OVC110 13/12 A3002 RMK AO2 RAB25E43 SLP164 P0000 60000 T01330117 10183 20133 55001
cycle: 0

Station Type Date Time Source
KCHS TAF 2020/02/24 18:50 UTC NOAA

TAF COR KCHS 241746Z 2418/2518 35003KT P6SM VCSH OVC060
FM250300 16005KT 6SM -SHRA BKN050 OVC100
TEMPO 2506/2510 3SM SHRA BKN035 OVC090
FM251300 21013G21KT 6SM -SHRA OVC015

Example: see airport list